createdAt,value
2023-04-08T00:03:25.296Z,100.00
2023-04-08T00:06:52.331Z,100.00
2023-04-08T00:10:19.521Z,100.00
2023-04-08T00:13:46.474Z,100.00
2023-04-08T00:17:13.417Z,100.00
2023-04-08T00:20:40.502Z,100.00
2023-04-08T00:24:08.321Z,100.00
2023-04-08T00:27:35.097Z,100.00
2023-04-08T00:31:02.184Z,100.00
2023-04-08T00:34:30.670Z,100.00
2023-04-08T00:37:57.592Z,100.00
2023-04-08T00:41:24.683Z,100.00
2023-04-08T00:44:51.639Z,100.00
2023-04-08T00:48:19.184Z,100.00
2023-04-08T00:51:46.006Z,100.00
2023-04-08T00:55:13.033Z,100.00
2023-04-08T00:58:40.735Z,100.00
2023-04-08T01:02:16.668Z,100.00
2023-04-08T01:05:54.760Z,100.00
2023-04-08T01:09:26.511Z,100.00
2023-04-08T01:12:57.323Z,100.00
2023-04-08T01:16:26.295Z,100.00
2023-04-08T01:19:55.280Z,100.00
2023-04-08T01:23:40.537Z,100.00
2023-04-08T01:27:08.847Z,100.00
2023-04-08T01:30:39.114Z,100.00
2023-04-08T01:34:07.606Z,100.00
2023-04-08T01:37:37.012Z,100.00
2023-04-08T01:41:05.724Z,100.00
2023-04-08T01:44:34.085Z,100.00
2023-04-08T01:48:02.482Z,100.00
2023-04-08T01:51:33.051Z,100.00
2023-04-08T01:55:00.897Z,100.00
2023-04-08T01:58:33.157Z,100.00
2023-04-08T02:02:02.237Z,100.00
2023-04-08T02:05:29.499Z,100.00
2023-04-08T02:08:57.889Z,100.00
2023-04-08T02:12:26.475Z,100.00
2023-04-08T02:15:58.375Z,100.00
2023-04-08T02:19:30.827Z,100.00
2023-04-08T02:23:04.790Z,100.00
2023-04-08T02:26:34.659Z,100.00
2023-04-08T02:30:01.161Z,100.00
2023-04-08T02:33:28.928Z,100.00
2023-04-08T02:36:57.929Z,100.00
2023-04-08T02:40:30.394Z,100.00
2023-04-08T02:43:57.576Z,100.00
2023-04-08T02:47:24.770Z,100.00
2023-04-08T02:50:51.885Z,100.00
2023-04-08T02:54:18.666Z,100.00
2023-04-08T02:57:45.767Z,100.00
2023-04-08T03:01:13.196Z,100.00
2023-04-08T03:04:40.079Z,100.00
2023-04-08T03:08:08.024Z,100.00
2023-04-08T03:11:35.058Z,100.00
2023-04-08T03:15:03.703Z,100.00
2023-04-08T03:18:30.688Z,100.00
2023-04-08T03:21:57.614Z,100.00
2023-04-08T03:25:24.640Z,100.00
2023-04-08T03:28:51.704Z,100.00
2023-04-08T03:32:18.852Z,100.00
2023-04-08T03:35:46.228Z,100.00
2023-04-08T03:39:13.137Z,100.00
2023-04-08T03:42:40.335Z,100.00
2023-04-08T03:46:07.101Z,100.00
2023-04-08T03:49:33.955Z,100.00
2023-04-08T03:53:01.111Z,100.00
2023-04-08T03:56:28.273Z,100.00
2023-04-08T03:59:55.519Z,100.00
2023-04-08T04:03:23.087Z,100.00
2023-04-08T04:06:50.049Z,100.00
2023-04-08T04:10:17.418Z,100.00
2023-04-08T04:13:44.554Z,100.00
2023-04-08T04:17:11.447Z,100.00
2023-04-08T04:20:40.869Z,100.00
2023-04-08T04:24:08.642Z,100.00
2023-04-08T04:27:35.589Z,100.00
2023-04-08T04:31:02.902Z,100.00
2023-04-08T04:34:29.980Z,100.00
2023-04-08T04:37:56.974Z,100.00
2023-04-08T04:41:23.992Z,100.00
2023-04-08T04:44:51.170Z,100.00
2023-04-08T04:48:18.083Z,100.00
2023-04-08T04:51:45.284Z,99.96
2023-04-08T04:55:13.325Z,100.00
2023-04-08T04:58:40.070Z,99.97
2023-04-08T05:02:07.119Z,100.00
2023-04-08T05:05:34.206Z,99.97
2023-04-08T05:09:01.329Z,99.97
2023-04-08T05:12:29.424Z,99.97
2023-04-08T05:15:56.521Z,100.00
2023-04-08T05:19:23.935Z,100.00
2023-04-08T05:22:52.175Z,100.00
2023-04-08T05:26:20.366Z,100.00
2023-04-08T05:29:47.470Z,100.00
2023-04-08T05:33:14.642Z,100.00
2023-04-08T05:36:42.293Z,100.00
2023-04-08T05:40:11.509Z,100.00
2023-04-08T05:43:38.551Z,100.00
2023-04-08T05:47:05.575Z,100.00
2023-04-08T05:50:32.582Z,100.00
2023-04-08T05:53:59.665Z,100.00
2023-04-08T05:57:26.690Z,100.00
2023-04-08T06:00:55.742Z,100.00
2023-04-08T06:04:26.368Z,100.00
2023-04-08T06:07:54.462Z,100.00
2023-04-08T06:11:22.438Z,100.00
2023-04-08T06:14:50.513Z,99.89
2023-04-08T06:18:18.875Z,99.82
2023-04-08T06:21:48.816Z,99.52
2023-04-08T06:25:17.165Z,99.00
2023-04-08T06:28:46.403Z,98.83
2023-04-08T06:32:15.209Z,98.19
2023-04-08T06:35:42.575Z,97.74
2023-04-08T06:39:10.854Z,97.31
2023-04-08T06:42:41.089Z,97.81
2023-04-08T06:46:23.190Z,97.48
2023-04-08T06:49:54.645Z,97.46
2023-04-08T06:53:25.223Z,96.40
2023-04-08T06:56:53.901Z,95.98
2023-04-08T07:00:23.415Z,96.06
2023-04-08T07:03:51.326Z,95.50
2023-04-08T07:07:21.048Z,95.19
2023-04-08T07:10:51.321Z,94.78
2023-04-08T07:14:22.705Z,94.12
2023-04-08T07:17:51.356Z,94.38
2023-04-08T07:21:18.850Z,94.21
2023-04-08T07:24:49.838Z,94.04
2023-04-08T07:28:17.133Z,93.98
2023-04-08T07:31:45.629Z,93.27
2023-04-08T07:35:12.893Z,92.19
2023-04-08T07:38:39.866Z,92.23
2023-04-08T07:42:07.026Z,92.16
2023-04-08T07:45:34.081Z,91.84
2023-04-08T07:49:01.319Z,91.70
2023-04-08T07:52:28.113Z,91.01
2023-04-08T07:55:54.976Z,91.48
2023-04-08T07:59:22.113Z,90.95
2023-04-08T08:02:49.440Z,91.04
2023-04-08T08:06:16.768Z,90.31
2023-04-08T08:09:43.678Z,89.65
2023-04-08T08:13:12.519Z,89.63
2023-04-08T08:16:40.005Z,89.48
2023-04-08T08:20:08.959Z,89.03
2023-04-08T08:23:36.154Z,89.01
2023-04-08T08:27:06.492Z,88.89
2023-04-08T08:30:35.476Z,88.06
2023-04-08T08:34:03.830Z,87.60
2023-04-08T08:37:31.821Z,87.72
2023-04-08T08:40:59.692Z,85.95
2023-04-08T08:44:27.277Z,86.09
2023-04-08T08:47:54.492Z,85.91
2023-04-08T08:51:22.542Z,85.99
2023-04-08T08:54:58.703Z,86.40
2023-04-08T08:58:33.418Z,86.12
2023-04-08T09:02:02.736Z,85.96
2023-04-08T09:05:48.819Z,84.95
2023-04-08T09:09:17.388Z,84.28
2023-04-08T09:12:58.890Z,83.16
2023-04-08T09:16:27.830Z,82.23
2023-04-08T09:20:12.052Z,81.32
2023-04-08T09:23:45.742Z,82.60
2023-04-08T09:27:13.979Z,83.33
2023-04-08T09:30:41.991Z,83.36
2023-04-08T09:34:16.676Z,83.48
2023-04-08T09:37:44.201Z,82.91
2023-04-08T09:41:13.819Z,82.78
2023-04-08T09:44:43.765Z,81.33
2023-04-08T09:48:22.366Z,81.97
2023-04-08T09:51:51.330Z,82.26
2023-04-08T09:55:22.951Z,82.21
2023-04-08T09:59:00.226Z,81.48
2023-04-08T10:02:37.030Z,81.01
2023-04-08T10:06:05.836Z,80.26
2023-04-08T10:09:34.376Z,78.31
2023-04-08T10:13:01.737Z,78.36
2023-04-08T10:16:29.995Z,76.82
2023-04-08T10:19:58.736Z,77.78
2023-04-08T10:24:08.441Z,76.28
2023-04-08T10:27:42.969Z,75.17
2023-04-08T10:31:23.333Z,74.94
2023-04-08T10:34:56.845Z,74.81
2023-04-08T10:38:23.949Z,75.65
2023-04-08T10:41:51.827Z,74.10
2023-04-08T10:45:21.018Z,75.04
2023-04-08T10:49:00.664Z,74.43
2023-04-08T10:52:28.239Z,73.86
2023-04-08T10:55:55.513Z,72.43
2023-04-08T10:59:32.185Z,72.61
2023-04-08T11:03:04.262Z,71.50
2023-04-08T11:06:32.281Z,71.86
2023-04-08T11:10:00.894Z,72.52
2023-04-08T11:13:28.916Z,72.72
2023-04-08T11:16:56.106Z,72.33
2023-04-08T11:20:23.561Z,72.50
2023-04-08T11:23:53.584Z,70.98
2023-04-08T11:27:23.265Z,71.39
2023-04-08T11:30:50.890Z,71.33
2023-04-08T11:34:25.648Z,71.06
2023-04-08T11:37:55.723Z,70.13
2023-04-08T11:41:23.037Z,70.04
2023-04-08T11:44:49.992Z,70.22
2023-04-08T11:48:18.097Z,70.23
2023-04-08T11:51:59.578Z,69.48
2023-04-08T11:55:28.089Z,69.71
2023-04-08T11:58:55.350Z,70.84
2023-04-08T12:02:22.369Z,70.92
2023-04-08T12:05:49.844Z,70.99
2023-04-08T12:09:17.131Z,71.04
2023-04-08T12:12:44.279Z,70.50
2023-04-08T12:16:12.474Z,69.89
2023-04-08T12:19:39.281Z,69.65
2023-04-08T12:23:08.272Z,70.07
2023-04-08T12:26:35.170Z,69.81
2023-04-08T12:30:02.391Z,69.62
2023-04-08T12:33:29.630Z,70.15
2023-04-08T12:36:56.728Z,69.75
2023-04-08T12:40:24.098Z,68.09
2023-04-08T12:43:51.191Z,68.03
2023-04-08T12:47:18.392Z,68.57
2023-04-08T12:50:45.619Z,67.71
2023-04-08T12:54:12.581Z,67.37
2023-04-08T12:57:39.666Z,67.75
2023-04-08T13:01:07.474Z,67.27
2023-04-08T13:04:34.563Z,66.47
2023-04-08T13:08:01.702Z,66.25
2023-04-08T13:11:28.980Z,66.26
2023-04-08T13:14:56.333Z,65.70
2023-04-08T13:18:23.394Z,65.01
2023-04-08T13:21:50.369Z,65.46
2023-04-08T13:25:18.373Z,65.74
2023-04-08T13:28:56.630Z,65.97
2023-04-08T13:32:26.338Z,66.03
2023-04-08T13:35:55.563Z,65.95
2023-04-08T13:39:25.465Z,65.48
2023-04-08T13:42:53.774Z,65.64
2023-04-08T13:46:21.635Z,65.22
2023-04-08T13:49:49.458Z,65.02
2023-04-08T13:53:18.024Z,64.99
2023-04-08T13:56:45.468Z,64.76
2023-04-08T14:00:15.826Z,64.42
2023-04-08T14:03:44.334Z,64.23
2023-04-08T14:07:12.459Z,63.76
2023-04-08T14:10:41.184Z,64.00
2023-04-08T14:14:11.478Z,64.09
2023-04-08T14:17:42.193Z,63.75
2023-04-08T14:21:11.063Z,63.51
2023-04-08T14:24:40.349Z,63.23
2023-04-08T14:28:09.318Z,62.42
2023-04-08T14:31:37.541Z,61.63
2023-04-08T14:35:07.593Z,62.03
2023-04-08T14:38:39.278Z,61.88
2023-04-08T14:42:07.471Z,62.36
2023-04-08T14:45:35.135Z,60.56
2023-04-08T14:49:02.909Z,60.37
2023-04-08T14:52:30.927Z,60.66
2023-04-08T14:55:59.422Z,59.21
2023-04-08T14:59:26.899Z,59.85
2023-04-08T15:02:53.985Z,60.19
2023-04-08T15:06:21.870Z,59.40
2023-04-08T15:09:49.246Z,60.30
2023-04-08T15:13:18.540Z,60.00
2023-04-08T15:16:46.543Z,59.84
2023-04-08T15:20:15.732Z,60.22
2023-04-08T15:23:44.317Z,60.52
2023-04-08T15:27:11.739Z,60.64
2023-04-08T15:30:39.322Z,60.85
2023-04-08T15:34:06.622Z,60.96
2023-04-08T15:37:34.354Z,61.07
2023-04-08T15:41:02.375Z,61.04
2023-04-08T15:44:33.731Z,61.28
2023-04-08T15:48:01.389Z,61.06
2023-04-08T15:51:28.901Z,60.95
2023-04-08T15:54:55.953Z,61.01
2023-04-08T15:58:23.032Z,61.07
2023-04-08T16:01:50.077Z,60.75
2023-04-08T16:05:17.115Z,60.86
2023-04-08T16:08:44.832Z,60.53
2023-04-08T16:12:12.068Z,60.36
2023-04-08T16:15:39.097Z,60.37
2023-04-08T16:19:07.559Z,60.47
2023-04-08T16:22:35.419Z,59.36
2023-04-08T16:26:03.562Z,58.30
2023-04-08T16:29:31.563Z,58.58
2023-04-08T16:32:59.019Z,58.57
2023-04-08T16:36:26.301Z,59.28
2023-04-08T16:39:54.753Z,59.70
2023-04-08T16:43:22.888Z,59.68
2023-04-08T16:46:51.022Z,59.81
2023-04-08T16:50:18.682Z,59.91
2023-04-08T16:53:46.784Z,60.19
2023-04-08T16:57:15.065Z,60.38
2023-04-08T17:00:42.623Z,60.48
2023-04-08T17:04:10.320Z,60.62
2023-04-08T17:07:40.022Z,61.13
2023-04-08T17:11:12.761Z,61.52
2023-04-08T17:14:41.328Z,61.64
2023-04-08T17:18:08.725Z,61.67
2023-04-08T17:21:36.886Z,61.67
2023-04-08T17:25:04.906Z,61.90
2023-04-08T17:28:32.613Z,62.14
2023-04-08T17:32:00.381Z,62.29
2023-04-08T17:35:28.663Z,62.63
2023-04-08T17:38:56.333Z,62.70
2023-04-08T17:42:24.405Z,62.84
2023-04-08T17:45:51.757Z,63.06
2023-04-08T17:49:18.975Z,63.28
2023-04-08T17:52:47.894Z,63.29
2023-04-08T17:56:15.088Z,63.52
2023-04-08T17:59:42.723Z,63.73
2023-04-08T18:03:10.842Z,63.90
2023-04-08T18:06:38.487Z,64.18
2023-04-08T18:10:08.580Z,64.35
2023-04-08T18:13:36.592Z,64.64
2023-04-08T18:17:05.447Z,64.85
2023-04-08T18:20:35.800Z,65.23
2023-04-08T18:24:03.654Z,65.74
2023-04-08T18:27:30.928Z,66.42
2023-04-08T18:30:58.302Z,66.90
2023-04-08T18:34:26.840Z,67.35
2023-04-08T18:37:54.068Z,67.82
2023-04-08T18:41:24.269Z,68.01
2023-04-08T18:44:51.950Z,68.51
2023-04-08T18:48:19.592Z,68.74
2023-04-08T18:51:58.995Z,69.21
2023-04-08T18:55:30.396Z,69.55
2023-04-08T18:58:57.775Z,70.03
2023-04-08T19:02:25.929Z,70.20
2023-04-08T19:05:53.853Z,70.59
2023-04-08T19:09:22.121Z,70.64
2023-04-08T19:12:49.856Z,70.97
2023-04-08T19:16:17.508Z,71.42
2023-04-08T19:19:46.865Z,72.05
2023-04-08T19:23:15.538Z,71.88
2023-04-08T19:26:43.309Z,72.38
2023-04-08T19:30:12.733Z,72.75
2023-04-08T19:33:40.199Z,73.16
2023-04-08T19:37:08.769Z,73.03
2023-04-08T19:40:35.893Z,73.23
2023-04-08T19:44:03.425Z,73.99
2023-04-08T19:47:30.964Z,73.87
2023-04-08T19:50:58.495Z,74.15
2023-04-08T19:54:30.202Z,73.85
2023-04-08T19:57:59.440Z,73.71
2023-04-08T20:01:28.138Z,74.22
2023-04-08T20:04:55.167Z,74.18
2023-04-08T20:08:22.015Z,74.23
2023-04-08T20:11:48.987Z,74.02
2023-04-08T20:15:24.095Z,74.42
2023-04-08T20:18:52.442Z,74.35
2023-04-08T20:22:19.611Z,74.29
2023-04-08T20:25:46.632Z,74.22
2023-04-08T20:29:13.604Z,74.66
2023-04-08T20:32:40.724Z,74.66
2023-04-08T20:36:07.975Z,75.00
2023-04-08T20:39:34.783Z,75.12
2023-04-08T20:43:02.434Z,75.33
2023-04-08T20:46:29.547Z,75.93
2023-04-08T20:49:56.565Z,76.73
2023-04-08T20:53:23.844Z,77.10
2023-04-08T20:56:50.765Z,77.39
2023-04-08T21:00:18.236Z,78.14
2023-04-08T21:03:45.359Z,79.23
2023-04-08T21:07:12.195Z,79.04
2023-04-08T21:10:39.457Z,79.21
2023-04-08T21:14:06.325Z,79.48
2023-04-08T21:17:33.351Z,80.11
2023-04-08T21:21:00.516Z,80.41
2023-04-08T21:24:28.580Z,80.55
2023-04-08T21:27:55.548Z,80.61
2023-04-08T21:31:22.496Z,80.42
2023-04-08T21:34:49.413Z,81.09
2023-04-08T21:38:16.422Z,81.15
2023-04-08T21:41:43.879Z,81.65
2023-04-08T21:45:13.260Z,82.01
2023-04-08T21:48:40.117Z,82.43
2023-04-08T21:52:07.262Z,82.28
2023-04-08T21:55:34.135Z,82.52
2023-04-08T21:59:01.179Z,83.45
2023-04-08T22:02:28.528Z,83.93
2023-04-08T22:05:56.359Z,84.00
2023-04-08T22:09:23.312Z,84.10
2023-04-08T22:12:50.348Z,84.08
2023-04-08T22:16:17.183Z,84.24
2023-04-08T22:19:44.142Z,84.49
2023-04-08T22:23:10.978Z,84.30
2023-04-08T22:26:37.805Z,84.86
2023-04-08T22:30:05.522Z,84.93
2023-04-08T22:33:32.470Z,84.96
2023-04-08T22:36:59.607Z,84.92
2023-04-08T22:40:26.730Z,84.92
2023-04-08T22:43:54.012Z,84.65
2023-04-08T22:47:21.408Z,85.31
2023-04-08T22:50:48.210Z,85.55
2023-04-08T22:54:19.022Z,85.92
2023-04-08T22:57:47.039Z,86.25
2023-04-08T23:01:17.218Z,86.18
2023-04-08T23:04:44.176Z,85.68
2023-04-08T23:08:11.202Z,85.20
2023-04-08T23:11:38.103Z,84.81
2023-04-08T23:15:05.892Z,84.65
2023-04-08T23:18:32.902Z,84.68
2023-04-08T23:21:59.921Z,85.02
2023-04-08T23:25:27.000Z,84.69
2023-04-08T23:28:54.244Z,84.82
2023-04-08T23:32:21.304Z,84.84
2023-04-08T23:35:48.294Z,84.92
2023-04-08T23:39:15.786Z,85.01
2023-04-08T23:42:42.873Z,85.11
2023-04-08T23:46:09.995Z,85.15
2023-04-08T23:49:37.137Z,85.22
2023-04-08T23:53:04.767Z,85.11
2023-04-08T23:56:31.924Z,85.62
2023-04-08T23:59:59.725Z,85.82
